Terminal Aerodrome Forecast
Issued by NWS

Home | Current Version | Previous Version | Text Only | Print | Product List | Glossary On
Versions: 1 2 3 4 5 6 7 8 9 10 11 12 13 14 15 16 17 18 19 20 21
000
FTUS43 KGRB 261100
TAFMTW
TAF
KMTW 261132Z 2612/2712 15003KT 6SM BR SCT015 SCT060
      TEMPO 2614/2618 BKN015
     FM261800 07003KT P6SM SCT025 BKN070
     FM270500 31005KT P6SM SCT014 BKN025=

USA.gov is the U.S. government's official web portal to all federal, state and local government web resources and services.